Time;durP1;ratioP1;P1;durP2;ratioP2;P2;SDS_P1;SDS_P2;PMS_P1;PMS_P2;Temp;Humidity;BMP_temperature;BMP_pressure;BME280_temperature;BME280_humidity;BME280_pressure;Samples;Min_cycle;Max_cycle;Signal;HPM_P1;HPM_P2
2023/04/20 00:01:47;;;;;;;14.67;8.43;;;;;;;10.73;90.15;94809.91;5014366;28;20265;-77
2023/04/20 00:04:16;;;;;;;15.13;8.63;;;;;;;10.76;89.50;94796.41;4998194;28;20780;-76
2023/04/20 00:06:42;;;;;;;14.23;9.00;;;;;;;10.79;88.41;94806.44;5026356;28;20230;-75
2023/04/20 00:09:09;;;;;;;13.30;8.63;;;;;;;10.81;88.26;94799.22;4997267;28;20241;-77
2023/04/20 00:11:35;;;;;;;13.57;8.87;;;;;;;10.81;88.47;94788.75;4991906;28;20312;-76
2023/04/20 00:14:00;;;;;;;16.03;8.50;;;;;;;10.79;86.68;94788.13;5001439;28;20347;-76
2023/04/20 00:16:26;;;;;;;14.20;8.70;;;;;;;10.84;87.61;94792.78;5005659;28;20685;-77
2023/04/20 00:18:51;;;;;;;15.20;8.70;;;;;;;10.74;87.22;94790.56;4999166;28;20336;-75
2023/04/20 00:21:20;;;;;;;13.47;8.20;;;;;;;10.63;87.69;94788.56;5000221;28;20226;-75
2023/04/20 00:23:46;;;;;;;11.73;8.40;;;;;;;10.74;87.98;94784.53;5026987;28;20230;-77
2023/04/20 00:26:11;;;;;;;14.07;8.80;;;;;;;10.67;87.57;94787.16;5028072;28;20244;-76
2023/04/20 00:28:37;;;;;;;14.13;8.83;;;;;;;10.71;89.37;94783.13;5012008;28;20236;-76
2023/04/20 00:31:02;;;;;;;16.67;9.50;;;;;;;10.70;88.68;94786.72;5010944;28;20627;-76
2023/04/20 00:33:28;;;;;;;14.80;9.00;;;;;;;10.66;87.59;94780.31;5004823;28;20221;-76
2023/04/20 00:35:55;;;;;;;14.03;9.23;;;;;;;10.62;88.96;94788.78;5023456;28;20229;-75
2023/04/20 00:38:20;;;;;;;18.03;9.47;;;;;;;10.55;89.53;94783.53;5004579;28;20230;-76
2023/04/20 00:40:51;;;;;;;15.40;8.90;;;;;;;10.52;89.09;94783.13;4986679;28;20746;-76
2023/04/20 00:43:17;;;;;;;17.00;8.70;;;;;;;10.49;89.61;94780.91;5009690;28;20221;-76
2023/04/20 00:45:43;;;;;;;16.40;8.43;;;;;;;10.46;88.90;94784.75;5019306;28;20229;-75
2023/04/20 00:48:08;;;;;;;13.00;8.53;;;;;;;10.46;88.61;94783.94;5025024;28;20229;-75
2023/04/20 00:50:34;;;;;;;13.07;8.37;;;;;;;10.42;88.44;94780.09;5001350;28;21001;-76
2023/04/20 00:53:01;;;;;;;16.07;8.50;;;;;;;10.45;87.95;94777.91;5015217;28;20288;-76
2023/04/20 00:55:27;;;;;;;12.00;8.27;;;;;;;10.40;88.29;94785.56;5006399;28;20761;-75
2023/04/20 00:57:52;;;;;;;13.47;8.43;;;;;;;10.31;88.12;94783.34;5016166;28;20398;-76
2023/04/20 01:00:18;;;;;;;12.87;8.23;;;;;;;10.35;88.20;94782.72;5011801;28;20819;-76
2023/04/20 01:02:45;;;;;;;13.90;8.83;;;;;;;10.41;88.24;94781.13;4993792;28;20246;-76
2023/04/20 01:05:11;;;;;;;16.50;8.77;;;;;;;10.40;87.99;94784.75;4996225;28;20234;-76
2023/04/20 01:07:36;;;;;;;16.70;9.23;;;;;;;10.29;88.43;94778.31;4996884;28;20301;-75
2023/04/20 01:10:03;;;;;;;13.77;8.57;;;;;;;10.24;88.80;94778.13;4974360;28;20651;-75
2023/04/20 01:12:28;;;;;;;14.47;8.20;;;;;;;10.16;89.05;94780.91;4988392;28;20253;-75
2023/04/20 01:14:54;;;;;;;15.73;8.80;;;;;;;10.22;89.58;94777.50;5020881;28;20613;-75
2023/04/20 01:17:19;;;;;;;16.93;8.87;;;;;;;10.27;89.82;94777.69;5002512;28;20234;-75
2023/04/20 01:19:45;;;;;;;15.77;9.47;;;;;;;10.12;89.88;94777.91;5003391;28;20231;-75
2023/04/20 01:22:20;;;;;;;15.47;9.20;;;;;;;10.15;89.96;94779.28;5004078;28;20681;-75
2023/04/20 01:24:45;;;;;;;16.93;9.23;;;;;;;10.25;88.89;94776.28;5009741;28;20313;-76
2023/04/20 01:27:12;;;;;;;16.97;9.10;;;;;;;10.27;90.04;94779.53;5020721;28;20241;-76
2023/04/20 01:29:38;;;;;;;15.67;9.20;;;;;;;10.22;89.62;94776.72;4995695;28;21074;-75
2023/04/20 01:32:04;;;;;;;16.80;8.63;;;;;;;10.22;89.51;94774.09;5019103;28;20238;-75
2023/04/20 01:34:29;;;;;;;13.93;8.57;;;;;;;10.19;89.49;94772.69;5013289;28;20266;-75
2023/04/20 01:36:55;;;;;;;15.27;9.00;;;;;;;10.25;89.62;94771.84;4997467;28;20241;-76
2023/04/20 01:39:20;;;;;;;15.80;9.00;;;;;;;10.40;89.21;94769.84;5003975;28;20234;-75
2023/04/20 01:41:46;;;;;;;13.87;8.87;;;;;;;10.38;88.22;94763.22;5000056;28;20258;-75
2023/04/20 01:44:11;;;;;;;14.10;8.83;;;;;;;10.31;88.52;94755.38;5020611;28;20230;-75
2023/04/20 01:46:40;;;;;;;15.87;8.83;;;;;;;10.33;88.54;94760.41;4996799;28;20230;-75
2023/04/20 01:49:06;;;;;;;13.57;8.87;;;;;;;10.26;87.66;94757.78;4993631;28;20234;-75
2023/04/20 01:51:32;;;;;;;16.23;9.27;;;;;;;10.20;89.34;94760.41;5000232;28;20226;-75
2023/04/20 01:53:58;;;;;;;13.40;8.77;;;;;;;10.21;88.18;94757.59;4981116;28;20977;-75
2023/04/20 01:56:24;;;;;;;17.40;8.87;;;;;;;10.21;88.19;94754.16;5001076;28;21211;-75
2023/04/20 01:58:50;;;;;;;15.40;9.00;;;;;;;10.13;88.20;94757.78;5011768;28;20234;-74
2023/04/20 02:01:15;;;;;;;16.80;8.97;;;;;;;10.16;88.29;94760.00;5013335;28;20231;-75
2023/04/20 02:03:41;;;;;;;12.90;8.50;;;;;;;10.19;88.37;94761.41;4976825;28;20234;-75
2023/04/20 02:06:06;;;;;;;15.90;8.70;;;;;;;10.14;88.25;94754.97;5009390;28;20588;-75
2023/04/20 02:08:32;;;;;;;13.90;8.70;;;;;;;10.07;88.60;94754.13;5005230;28;20276;-75
2023/04/20 02:10:57;;;;;;;14.90;9.07;;;;;;;10.07;88.27;94753.31;4988149;28;20791;-75
2023/04/20 02:13:23;;;;;;;15.23;9.03;;;;;;;9.98;88.80;94749.31;4992572;28;20230;-76
2023/04/20 02:15:49;;;;;;;15.47;8.87;;;;;;;9.94;89.76;94756.72;4995728;28;20233;-74
2023/04/20 02:18:15;;;;;;;16.00;9.13;;;;;;;9.95;88.98;94754.91;4997846;28;20230;-75
2023/04/20 02:20:41;;;;;;;14.70;8.90;;;;;;;9.99;88.99;94754.31;4999386;28;20238;-74
2023/04/20 02:23:06;;;;;;;14.33;8.80;;;;;;;10.05;89.24;94752.72;5007989;28;20238;-75
2023/04/20 02:25:32;;;;;;;16.00;9.30;;;;;;;10.15;88.63;94756.56;4997912;28;20222;-76
2023/04/20 02:27:57;;;;;;;15.67;9.13;;;;;;;10.14;89.52;94757.59;5003630;28;20230;-75
2023/04/20 02:30:23;;;;;;;15.40;9.00;;;;;;;10.08;89.55;94754.91;4997088;28;20281;-75
2023/04/20 02:32:48;;;;;;;12.67;8.17;;;;;;;10.03;89.40;94755.53;4986304;28;20234;-74
2023/04/20 02:35:14;;;;;;;15.57;8.77;;;;;;;10.09;89.15;94756.53;5001350;28;20234;-76
2023/04/20 02:37:39;;;;;;;14.90;9.00;;;;;;;10.08;88.97;94754.91;5002581;28;20619;-75
2023/04/20 02:40:06;;;;;;;13.80;9.00;;;;;;;10.07;90.25;94759.38;5004159;28;20640;-75
2023/04/20 02:42:32;;;;;;;13.83;8.40;;;;;;;10.01;88.80;94760.16;5005177;28;20249;-75
2023/04/20 02:44:57;;;;;;;15.13;8.90;;;;;;;10.00;89.15;94757.75;4988656;28;20295;-75
2023/04/20 02:47:23;;;;;;;14.57;8.80;;;;;;;10.01;87.99;94759.34;5003219;28;20278;-76
2023/04/20 02:49:48;;;;;;;15.77;8.80;;;;;;;10.17;87.84;94760.81;5009642;28;20289;-75
2023/04/20 02:52:14;;;;;;;12.57;8.30;;;;;;;10.08;87.92;94754.91;5014269;28;20234;-76
2023/04/20 02:54:40;;;;;;;14.00;8.87;;;;;;;10.20;87.48;94755.19;4988744;28;20230;-75
2023/04/20 02:57:06;;;;;;;15.30;8.80;;;;;;;10.24;87.56;94754.56;4993667;28;20297;-76
2023/04/20 02:59:31;;;;;;;14.47;8.87;;;;;;;10.18;87.49;94750.13;5006832;28;20231;-76
2023/04/20 03:01:56;;;;;;;14.60;8.87;;;;;;;10.24;87.90;94756.38;5001073;28;20237;-76
2023/04/20 03:04:22;;;;;;;17.57;9.20;;;;;;;10.24;88.00;94759.81;5010926;28;20231;-76
2023/04/20 03:06:49;;;;;;;14.03;8.80;;;;;;;10.34;87.32;94751.56;4996773;28;20235;-76
2023/04/20 03:09:14;;;;;;;15.07;8.53;;;;;;;10.32;87.38;94761.41;4980794;28;20317;-75
2023/04/20 03:11:40;;;;;;;20.20;8.63;;;;;;;10.34;87.95;94757.56;5004641;28;20226;-75
2023/04/20 03:14:05;;;;;;;19.37;9.10;;;;;;;10.30;87.81;94750.34;5003127;28;20226;-75
2023/04/20 03:16:31;;;;;;;13.87;8.63;;;;;;;10.26;87.57;94755.19;5001741;28;20238;-75
2023/04/20 03:18:56;;;;;;;14.30;8.40;;;;;;;10.34;88.30;94754.16;5005973;28;20222;-75
2023/04/20 03:21:22;;;;;;;15.70;8.80;;;;;;;10.26;87.60;94751.75;4998920;28;20698;-74
2023/04/20 03:23:48;;;;;;;12.50;8.47;;;;;;;10.27;87.86;94754.16;4994679;28;20237;-76
2023/04/20 03:26:13;;;;;;;16.90;8.73;;;;;;;10.27;87.52;94748.91;5021784;28;20233;-75
2023/04/20 03:28:40;;;;;;;14.70;8.70;;;;;;;10.30;88.17;94758.19;4995725;28;20934;-75
2023/04/20 03:31:05;;;;;;;13.83;8.57;;;;;;;10.39;87.12;94757.00;4995984;28;20239;-74
2023/04/20 03:33:31;;;;;;;14.97;8.97;;;;;;;10.38;87.36;94758.78;5017966;28;20709;-75
2023/04/20 03:35:56;;;;;;;16.03;9.03;;;;;;;10.38;87.17;94758.00;4995811;28;20235;-75
2023/04/20 03:38:22;;;;;;;14.57;9.00;;;;;;;10.33;87.18;94755.97;5012802;28;20226;-74
2023/04/20 03:40:47;;;;;;;16.60;9.00;;;;;;;10.30;88.11;94752.94;5001789;28;20230;-75
2023/04/20 03:43:13;;;;;;;16.70;10.07;;;;;;;10.26;87.40;94755.19;5019802;28;20834;-75
2023/04/20 03:45:38;;;;;;;16.47;10.03;;;;;;;10.23;88.03;94754.75;5022198;28;20238;-74
2023/04/20 03:48:04;;;;;;;15.57;9.40;;;;;;;10.31;87.05;94749.34;5007149;28;20265;-75
2023/04/20 03:50:30;;;;;;;15.40;9.07;;;;;;;10.29;86.49;94759.19;5020785;28;20226;-77
2023/04/20 03:52:55;;;;;;;14.57;9.47;;;;;;;10.35;86.56;94761.00;4988098;28;20230;-75
2023/04/20 03:55:21;;;;;;;19.27;9.00;;;;;;;10.38;87.34;94760.59;4997933;28;20696;-75
2023/04/20 03:57:46;;;;;;;15.60;9.03;;;;;;;10.29;87.94;94757.41;5008586;28;20222;-75
2023/04/20 04:00:12;;;;;;;15.00;8.77;;;;;;;10.30;86.49;94759.00;4998971;28;20226;-75
2023/04/20 04:02:38;;;;;;;16.00;8.97;;;;;;;10.29;85.98;94761.81;5013050;28;20242;-75
2023/04/20 04:05:04;;;;;;;14.03;8.97;;;;;;;10.30;86.57;94766.84;4999165;28;20223;-74
2023/04/20 04:07:29;;;;;;;16.83;8.97;;;;;;;10.25;86.62;94766.63;5008748;28;20222;-75
2023/04/20 04:09:55;;;;;;;14.47;8.67;;;;;;;10.33;87.04;94763.00;4996892;28;20691;-75
2023/04/20 04:12:20;;;;;;;15.90;8.90;;;;;;;10.44;86.84;94771.06;5012678;28;20226;-76
2023/04/20 04:14:46;;;;;;;14.90;8.77;;;;;;;10.50;86.60;94770.25;5002911;28;20226;-75
2023/04/20 04:17:13;;;;;;;14.50;8.37;;;;;;;10.32;85.89;94770.06;5009713;28;20668;-74
2023/04/20 04:19:39;;;;;;;15.83;8.60;;;;;;;10.39;86.25;94770.84;4999462;28;20310;-76
2023/04/20 04:22:05;;;;;;;15.90;8.80;;;;;;;10.45;86.23;94777.91;5022715;28;20241;-76
2023/04/20 04:24:32;;;;;;;13.80;8.63;;;;;;;10.49;86.33;94767.81;4996534;28;20269;-75
2023/04/20 04:26:58;;;;;;;17.17;8.60;;;;;;;10.45;86.24;94770.06;4994534;28;20230;-75
2023/04/20 04:29:27;;;;;;;14.17;9.20;;;;;;;10.42;85.53;94778.31;4996563;28;20235;-76
2023/04/20 04:31:53;;;;;;;15.03;9.33;;;;;;;10.44;86.02;94780.72;5012821;28;20674;-74
2023/04/20 04:34:19;;;;;;;18.67;9.10;;;;;;;10.42;86.29;94777.50;5002108;28;20982;-76
2023/04/20 04:36:44;;;;;;;18.10;9.60;;;;;;;10.40;86.09;94782.94;5012564;28;20233;-76
2023/04/20 04:39:11;;;;;;;17.33;9.30;;;;;;;10.48;85.66;94781.94;5006782;28;20250;-76
2023/04/20 04:41:36;;;;;;;18.13;9.53;;;;;;;10.53;86.03;94784.75;5012105;28;20219;-75
2023/04/20 04:44:02;;;;;;;15.57;9.60;;;;;;;10.48;86.02;94781.94;5008407;28;20241;-74
2023/04/20 04:46:28;;;;;;;18.40;9.50;;;;;;;10.45;85.87;94783.16;5004194;28;21017;-75
2023/04/20 04:48:55;;;;;;;16.20;9.43;;;;;;;10.55;86.32;94788.78;4994178;28;20798;-75
2023/04/20 04:51:20;;;;;;;14.33;9.57;;;;;;;10.58;86.32;94796.22;5022622;28;20261;-75
2023/04/20 04:53:48;;;;;;;15.43;9.20;;;;;;;10.62;86.09;94792.19;5004976;28;20229;-75
2023/04/20 04:56:13;;;;;;;15.93;9.00;;;;;;;10.61;85.53;94797.63;5006079;28;20329;-75
2023/04/20 04:58:39;;;;;;;19.87;9.67;;;;;;;10.62;85.37;94800.06;5008744;28;21348;-75
2023/04/20 05:01:05;;;;;;;17.77;9.50;;;;;;;10.65;85.72;94798.84;5013712;28;20241;-75
2023/04/20 05:03:30;;;;;;;17.37;10.03;;;;;;;10.74;85.36;94800.22;5022975;28;20233;-74
2023/04/20 05:05:56;;;;;;;16.97;9.57;;;;;;;10.74;84.89;94800.22;4990936;28;20233;-75
2023/04/20 05:08:23;;;;;;;16.03;9.67;;;;;;;10.82;85.48;94800.81;5009641;28;20229;-76
2023/04/20 05:10:49;;;;;;;17.07;10.00;;;;;;;10.67;85.67;94802.06;5031341;28;20858;-74
2023/04/20 05:13:14;;;;;;;18.97;10.10;;;;;;;10.73;85.46;94804.66;5031613;28;20238;-74
2023/04/20 05:15:40;;;;;;;19.50;10.70;;;;;;;10.74;85.19;94798.44;5009397;28;20237;-75
2023/04/20 05:18:05;;;;;;;16.40;10.37;;;;;;;10.74;85.13;94798.44;5010376;28;20237;-75
2023/04/20 05:20:31;;;;;;;19.70;10.27;;;;;;;10.74;85.37;94803.66;5022269;28;20232;-75
2023/04/20 05:22:56;;;;;;;20.97;10.77;;;;;;;10.84;85.75;94801.41;5005099;28;20260;-75
2023/04/20 05:25:22;;;;;;;21.07;11.10;;;;;;;10.75;86.11;94800.03;5015862;28;20229;-76
2023/04/20 05:27:47;;;;;;;19.53;11.03;;;;;;;10.83;86.13;94799.81;4992440;28;20237;-74
2023/04/20 05:30:13;;;;;;;19.10;10.60;;;;;;;10.82;85.49;94810.47;5005719;28;20287;-75
2023/04/20 05:32:41;;;;;;;20.53;10.90;;;;;;;10.89;85.45;94806.03;4983396;28;20317;-75
2023/04/20 05:35:07;;;;;;;19.60;10.80;;;;;;;10.87;86.57;94802.81;4994908;28;20226;-75
2023/04/20 05:37:33;;;;;;;19.50;11.00;;;;;;;10.75;85.22;94805.25;5016205;28;20233;-75
2023/04/20 05:39:58;;;;;;;19.20;11.60;;;;;;;10.72;85.96;94808.28;5022931;28;20279;-75
2023/04/20 05:42:24;;;;;;;21.30;10.93;;;;;;;10.75;85.09;94813.09;5004073;28;20629;-75
2023/04/20 05:44:50;;;;;;;21.50;11.37;;;;;;;10.89;85.42;94813.88;5006094;28;20229;-75
2023/04/20 05:47:15;;;;;;;20.97;11.67;;;;;;;10.88;84.44;94809.69;5013516;28;20234;-75
2023/04/20 05:49:41;;;;;;;21.60;11.63;;;;;;;10.86;84.78;94805.66;5013671;28;20229;-76
2023/04/20 05:52:06;;;;;;;22.00;11.93;;;;;;;10.96;84.58;94811.28;5005996;28;20268;-75
2023/04/20 05:54:32;;;;;;;25.97;12.30;;;;;;;11.08;84.05;94809.66;5013705;28;20229;-75
2023/04/20 05:56:57;;;;;;;25.60;11.70;;;;;;;10.96;84.29;94811.28;5021725;28;20230;-74
2023/04/20 05:59:23;;;;;;;20.67;11.87;;;;;;;10.69;85.38;94813.13;5002555;28;20217;-75
2023/04/20 06:01:49;;;;;;;19.00;12.13;;;;;;;10.88;85.71;94809.69;5010884;28;20794;-74
2023/04/20 06:04:14;;;;;;;22.10;12.50;;;;;;;10.85;86.70;94817.94;5002068;28;20221;-74
2023/04/20 06:06:40;;;;;;;21.37;12.63;;;;;;;10.92;86.28;94815.28;4988427;28;20303;-75
2023/04/20 06:09:05;;;;;;;21.57;12.10;;;;;;;10.85;86.12;94810.06;5011877;28;20226;-75
2023/04/20 06:11:31;;;;;;;22.47;12.70;;;;;;;11.04;86.98;94811.03;4982475;28;20700;-75
2023/04/20 06:13:56;;;;;;;20.10;12.80;;;;;;;11.08;88.23;94807.81;5015783;28;20786;-74
2023/04/20 06:16:22;;;;;;;21.03;12.83;;;;;;;11.15;87.81;94808.59;5002658;28;20236;-75
2023/04/20 06:18:48;;;;;;;25.80;13.10;;;;;;;11.15;87.88;94816.47;5026768;28;20230;-76
2023/04/20 06:21:14;;;;;;;20.30;12.50;;;;;;;11.15;87.21;94818.28;5002141;28;20226;-74
2023/04/20 06:23:40;;;;;;;19.83;12.23;;;;;;;11.09;86.84;94814.66;4985054;28;20230;-73
2023/04/20 06:26:07;;;;;;;20.60;11.87;;;;;;;11.08;86.77;94814.88;4988136;28;20268;-75
2023/04/20 06:28:34;;;;;;;20.97;11.90;;;;;;;11.06;86.23;94817.69;4993393;28;20226;-75
2023/04/20 06:31:00;;;;;;;20.23;11.93;;;;;;;10.98;86.13;94815.31;5017735;28;20218;-75
2023/04/20 06:33:25;;;;;;;20.50;12.33;;;;;;;10.99;86.55;94813.47;5026880;28;20217;-75
2023/04/20 06:35:53;;;;;;;24.00;12.30;;;;;;;11.14;86.05;94817.47;5025117;28;20234;-76
2023/04/20 06:38:19;;;;;;;23.23;12.87;;;;;;;11.06;85.72;94820.31;4999667;28;20621;-73
2023/04/20 06:40:45;;;;;;;20.53;12.57;;;;;;;11.08;86.91;94826.16;5001425;28;20237;-74
2023/04/20 06:43:10;;;;;;;21.60;13.03;;;;;;;11.03;86.53;94822.56;5007092;28;20230;-74
2023/04/20 06:45:35;;;;;;;22.30;13.47;;;;;;;11.10;86.61;94828.56;5006434;28;20687;-75
2023/04/20 06:48:01;;;;;;;22.03;13.00;;;;;;;11.05;86.21;94823.97;5033666;28;20257;-75
2023/04/20 06:50:26;;;;;;;25.40;12.73;;;;;;;11.09;86.55;94838.25;4987584;28;20700;-74
2023/04/20 06:52:52;;;;;;;20.60;13.13;;;;;;;11.10;86.56;94836.44;5003335;28;20651;-74
2023/04/20 06:55:17;;;;;;;22.80;13.57;;;;;;;11.04;87.21;94839.84;5003631;28;20226;-75
2023/04/20 06:57:43;;;;;;;24.70;13.97;;;;;;;11.09;88.10;94834.81;5013157;28;20686;-75
2023/04/20 07:00:09;;;;;;;26.67;14.70;;;;;;;11.19;89.12;94843.88;5012831;28;20387;-75
2023/04/20 07:02:50;;;;;;;25.27;14.50;;;;;;;11.22;89.07;94843.47;4983442;28;20231;-76
2023/04/20 07:05:16;;;;;;;24.80;14.40;;;;;;;11.15;89.45;94840.03;5003796;28;20308;-73
2023/04/20 07:07:42;;;;;;;26.50;14.67;;;;;;;11.24;90.53;94845.88;5002854;28;20226;-75
2023/04/20 07:10:09;;;;;;;25.63;13.93;;;;;;;11.22;90.61;94847.91;5006128;28;20322;-75
2023/04/20 07:12:37;;;;;;;26.87;15.00;;;;;;;11.22;89.89;94848.72;5022942;28;20330;-74
2023/04/20 07:15:04;;;;;;;25.10;14.37;;;;;;;11.41;88.27;94847.03;4998851;28;20253;-74
2023/04/20 07:17:30;;;;;;;24.73;14.27;;;;;;;11.49;88.22;94852.03;4989967;28;20230;-75
2023/04/20 07:19:56;;;;;;;24.37;14.13;;;;;;;11.57;88.07;94846.59;4982997;28;20286;-75
2023/04/20 07:22:21;;;;;;;22.73;13.10;;;;;;;11.46;87.08;94847.22;5007305;28;20246;-74
2023/04/20 07:24:47;;;;;;;23.40;13.60;;;;;;;11.58;86.97;94845.59;4995362;28;20719;-74
2023/04/20 07:27:12;;;;;;;21.27;13.00;;;;;;;11.70;86.05;94846.53;5008566;28;20230;-74
2023/04/20 07:29:38;;;;;;;21.27;13.33;;;;;;;11.62;86.01;94854.63;5018719;28;20669;-76
2023/04/20 07:32:04;;;;;;;27.23;13.70;;;;;;;11.85;85.66;94849.72;5017366;28;20234;-75
2023/04/20 07:34:29;;;;;;;24.63;13.73;;;;;;;11.77;84.67;94847.34;5025007;28;20227;-75
2023/04/20 07:36:55;;;;;;;24.00;13.60;;;;;;;11.78;84.45;94843.69;5001919;28;20326;-77
2023/04/20 07:39:20;;;;;;;21.33;13.13;;;;;;;11.69;84.61;94844.16;4993749;28;20230;-75
2023/04/20 07:41:46;;;;;;;22.50;13.67;;;;;;;11.79;84.21;94845.31;5002992;28;20245;-80
2023/04/20 07:44:12;;;;;;;25.63;13.90;;;;;;;11.93;83.97;94836.38;5022234;28;20230;-74
2023/04/20 07:46:38;;;;;;;22.93;13.43;;;;;;;12.03;83.17;94844.59;4994160;28;20235;-77
2023/04/20 07:49:03;;;;;;;24.00;12.93;;;;;;;12.57;83.50;94840.59;4999590;28;20231;-74
2023/04/20 07:51:31;;;;;;;23.23;13.70;;;;;;;12.75;81.97;94840.69;4999664;28;20709;-74
2023/04/20 07:53:56;;;;;;;26.63;12.70;;;;;;;12.60;81.52;94833.13;4994198;28;20267;-73
2023/04/20 07:56:22;;;;;;;22.73;12.47;;;;;;;12.57;81.81;94843.22;4992774;28;20329;-74
2023/04/20 07:58:47;;;;;;;21.60;11.50;;;;;;;12.53;79.83;94835.00;5014085;28;20329;-74
2023/04/20 08:01:13;;;;;;;21.27;12.07;;;;;;;13.03;79.47;94834.97;4992987;28;20230;-75
2023/04/20 08:03:38;;;;;;;20.03;11.50;;;;;;;13.04;78.09;94842.63;5009985;28;20242;-74
2023/04/20 08:06:04;;;;;;;19.93;11.80;;;;;;;12.98;78.16;94847.94;5008873;28;20243;-75
2023/04/20 08:08:29;;;;;;;17.97;10.90;;;;;;;13.02;76.62;94842.06;5017225;28;20218;-77
2023/04/20 08:10:57;;;;;;;16.83;11.13;;;;;;;13.16;77.74;94838.31;5010024;28;20230;-75
2023/04/20 08:13:22;;;;;;;17.90;11.20;;;;;;;13.03;78.29;94843.66;5000442;28;20306;-74
2023/04/20 08:15:48;;;;;;;19.73;11.27;;;;;;;12.92;78.35;94843.56;4988324;28;20236;-78
2023/04/20 08:18:13;;;;;;;21.20;11.40;;;;;;;12.77;78.05;94844.72;5012931;28;20237;-76
2023/04/20 08:20:39;;;;;;;20.30;11.53;;;;;;;12.68;78.86;94837.31;4995548;28;20221;-75
2023/04/20 08:23:05;;;;;;;17.23;10.90;;;;;;;12.93;78.27;94842.53;5026010;28;20273;-75
2023/04/20 08:25:31;;;;;;;20.87;12.07;;;;;;;12.93;78.66;94843.34;5004216;28;20215;-75
2023/04/20 08:27:57;;;;;;;21.20;11.67;;;;;;;12.94;78.32;94841.53;5000277;28;20962;-76
2023/04/20 08:30:22;;;;;;;21.67;11.50;;;;;;;13.01;78.93;94845.72;5002462;28;20241;-76
2023/04/20 08:32:48;;;;;;;24.53;12.30;;;;;;;13.17;78.61;94837.28;4995514;28;20308;-75
2023/04/20 08:35:13;;;;;;;23.70;12.27;;;;;;;13.30;79.34;94846.88;5011564;28;20231;-75
2023/04/20 08:37:39;;;;;;;18.17;11.27;;;;;;;13.23;78.16;94844.31;4996066;28;20230;-76
2023/04/20 08:40:05;;;;;;;17.70;11.20;;;;;;;13.29;78.04;94837.38;4996262;28;20238;-75
2023/04/20 08:42:30;;;;;;;18.87;11.50;;;;;;;13.37;77.06;94840.50;5004914;28;20233;-76
2023/04/20 08:44:56;;;;;;;20.87;11.60;;;;;;;13.65;76.54;94857.63;5022142;28;20226;-75
2023/04/20 08:47:22;;;;;;;18.93;11.40;;;;;;;13.52;76.13;94848.03;5001789;28;20624;-75
2023/04/20 08:49:47;;;;;;;18.17;11.50;;;;;;;13.31;75.83;94837.97;5001466;28;20238;-74
2023/04/20 08:52:13;;;;;;;18.70;11.33;;;;;;;13.29;76.92;94840.81;5020538;28;20968;-75
2023/04/20 08:54:39;;;;;;;21.17;12.17;;;;;;;13.17;76.72;94845.19;5005149;28;20237;-75
2023/04/20 08:57:04;;;;;;;21.60;12.07;;;;;;;13.07;77.21;94844.88;4987099;28;20400;-74
2023/04/20 08:59:30;;;;;;;18.77;11.73;;;;;;;13.30;76.65;94850.28;4995911;28;20224;-76
2023/04/20 09:02:06;;;;;;;19.57;12.20;;;;;;;13.28;76.76;94843.66;4988910;28;20313;-75
2023/04/20 09:04:31;;;;;;;19.43;12.13;;;;;;;13.27;76.19;94845.50;5009629;28;20284;-75
2023/04/20 09:06:57;;;;;;;20.33;12.13;;;;;;;13.26;76.13;94850.94;5001428;28;20222;-75
2023/04/20 09:09:24;;;;;;;21.00;12.23;;;;;;;13.29;76.33;94848.69;5014868;28;20847;-74
2023/04/20 09:12:06;;;;;;;19.83;12.43;;;;;;;13.39;74.78;94848.19;5005452;28;20226;-74
2023/04/20 09:14:47;;;;;;;19.20;11.63;;;;;;;13.36;75.13;94846.81;5003807;28;20401;-75
2023/04/20 09:17:13;;;;;;;18.57;11.80;;;;;;;13.49;74.87;94851.91;4985218;28;20237;-75
2023/04/20 09:19:39;;;;;;;18.83;11.70;;;;;;;13.72;74.27;94845.19;5004727;28;20273;-75
2023/04/20 09:22:38;;;;;;;20.60;12.00;;;;;;;13.65;74.08;94847.09;5010796;28;20242;-75
2023/04/20 09:35:09;;;;;;;19.60;11.40;;;;;;;14.11;72.50;94842.88;5010548;28;20300;-76
2023/04/20 09:37:35;;;;;;;17.33;10.93;;;;;;;14.33;72.14;94837.94;5009781;28;20230;-77
2023/04/20 09:40:01;;;;;;;15.90;10.87;;;;;;;14.42;71.53;94833.97;4994550;28;20293;-78
2023/04/20 10:31:38;;;;;;;16.50;10.10;;;;;;;15.12;67.20;94802.44;5028167;28;20809;-75
2023/04/20 10:34:04;;;;;;;14.67;9.93;;;;;;;15.31;67.32;94791.53;4985907;28;20260;-75
2023/04/20 10:36:32;;;;;;;16.83;10.90;;;;;;;15.44;67.28;94791.31;5007878;28;20321;-77
2023/04/20 10:38:59;;;;;;;17.47;10.83;;;;;;;15.36;67.64;94785.56;4996833;28;20987;-76
2023/04/20 10:41:25;;;;;;;17.07;10.60;;;;;;;15.40;67.21;94790.13;5030903;28;20234;-76
2023/04/20 10:43:50;;;;;;;17.53;10.90;;;;;;;15.16;67.97;94799.13;5030713;28;20233;-75
2023/04/20 10:46:20;;;;;;;16.57;10.67;;;;;;;14.80;69.45;94794.06;5005876;28;20781;-76
2023/04/20 10:48:56;;;;;;;15.07;9.63;;;;;;;15.24;67.74;94788.22;5004069;28;20233;-76
2023/04/20 10:51:22;;;;;;;14.90;9.97;;;;;;;15.59;65.65;94790.03;5026885;28;20316;-77
2023/04/20 10:54:00;;;;;;;17.10;10.03;;;;;;;15.97;64.70;94793.69;4990012;28;20373;-76
2023/04/20 10:56:26;;;;;;;16.00;9.53;;;;;;;16.05;64.94;94792.50;5026282;28;20256;-76
2023/04/20 10:58:52;;;;;;;15.30;9.77;;;;;;;15.96;65.77;94788.63;5006749;28;20257;-76
2023/04/20 11:01:18;;;;;;;17.43;9.60;;;;;;;16.21;64.63;94797.03;5034001;28;20234;-74
2023/04/20 11:03:48;;;;;;;13.73;9.03;;;;;;;16.70;62.62;94793.69;5003749;28;20236;-75
2023/04/20 11:06:14;;;;;;;13.57;9.20;;;;;;;16.48;63.02;94786.69;5000443;28;20781;-76
2023/04/20 11:08:40;;;;;;;15.57;9.77;;;;;;;17.03;61.86;94781.50;5013721;28;20230;-76
2023/04/20 11:11:27;;;;;;;12.67;9.40;;;;;;;17.50;61.72;94780.81;5015748;28;20237;-76
2023/04/20 11:14:07;;;;;;;15.70;9.00;;;;;;;17.26;61.85;94782.09;5018208;28;20225;-76
2023/04/20 11:16:32;;;;;;;14.13;8.13;;;;;;;16.78;60.16;94784.53;5027441;28;20230;-76
2023/04/20 11:18:58;;;;;;;15.03;8.00;;;;;;;16.55;60.65;94777.56;5033368;28;20255;-76
2023/04/20 11:21:37;;;;;;;11.50;8.30;;;;;;;16.42;60.89;94777.03;5014800;28;20234;-76
2023/04/20 11:24:03;;;;;;;13.83;8.33;;;;;;;16.53;60.79;94779.66;5001598;28;20311;-76
2023/04/20 11:26:42;;;;;;;15.20;8.70;;;;;;;16.77;60.73;94775.00;5001423;28;20256;-76
2023/04/20 11:29:08;;;;;;;11.43;8.47;;;;;;;16.80;60.19;94775.34;5032647;28;20233;-75
2023/04/20 11:31:33;;;;;;;13.87;8.50;;;;;;;16.37;60.70;94771.69;5009104;28;20292;-76
2023/04/20 11:33:59;;;;;;;13.90;7.67;;;;;;;16.42;59.82;94771.75;5000401;28;20782;-74
2023/04/20 11:36:27;;;;;;;10.67;7.90;;;;;;;16.43;60.15;94771.50;4991198;28;20230;-76
2023/04/20 11:38:52;;;;;;;13.47;8.73;;;;;;;16.57;60.15;94769.41;4993579;28;20276;-77
2023/04/20 11:41:18;;;;;;;11.93;7.93;;;;;;;16.47;60.55;94753.34;5032845;28;20230;-75
2023/04/20 11:43:44;;;;;;;14.37;8.80;;;;;;;16.63;60.98;94763.16;5001604;28;20237;-76
2023/04/20 11:46:17;;;;;;;11.33;7.37;;;;;;;16.62;59.48;94764.22;4991132;28;20685;-76
2023/04/20 11:48:42;;;;;;;10.73;7.00;;;;;;;16.56;58.66;94763.31;5008823;28;20238;-76
2023/04/20 11:51:08;;;;;;;11.57;7.10;;;;;;;16.34;60.24;94765.03;5020163;28;20266;-76
2023/04/20 11:53:33;;;;;;;12.57;7.80;;;;;;;16.33;60.26;94758.16;5002563;28;20226;-75
2023/04/20 11:55:59;;;;;;;10.47;7.23;;;;;;;16.28;59.47;94754.63;5002153;28;20226;-74
2023/04/20 11:58:24;;;;;;;12.30;7.73;;;;;;;16.30;60.70;94760.47;5004718;28;20243;-76
2023/04/20 12:00:50;;;;;;;10.37;7.37;;;;;;;16.23;61.02;94755.34;5018558;28;20292;-75
2023/04/20 12:03:15;;;;;;;10.83;8.07;;;;;;;16.33;60.81;94758.16;5033817;28;20694;-74
2023/04/20 12:05:42;;;;;;;13.27;8.60;;;;;;;16.05;63.08;94752.88;4985727;28;20225;-76
2023/04/20 12:08:08;;;;;;;11.70;8.20;;;;;;;15.90;62.10;94748.16;5027627;28;20229;-75
2023/04/20 12:10:33;;;;;;;12.37;8.50;;;;;;;15.73;63.25;94754.41;5007394;28;20234;-75
2023/04/20 12:13:00;;;;;;;17.07;8.50;;;;;;;15.36;64.06;94765.25;5002673;28;20241;-75
2023/04/20 12:15:25;;;;;;;11.37;7.80;;;;;;;15.06;64.61;94767.25;5007683;28;20244;-74
2023/04/20 12:17:51;;;;;;;11.37;7.53;;;;;;;14.77;65.12;94758.44;4992272;28;20225;-77